sensor_id;sensor_type;location;lat;lon;timestamp;pressure;altitude;pressure_sealevel;temperature;humidity
77410;BME280;66481;51.332;22.804;2024-01-25T00:02:59;98520.88;;;4.74;100.00
77410;BME280;66481;51.332;22.804;2024-01-25T00:07:00;98519.19;;;4.73;100.00
77410;BME280;66481;51.332;22.804;2024-01-25T00:11:02;98519.69;;;4.65;100.00
77410;BME280;66481;51.332;22.804;2024-01-25T00:15:04;98503.69;;;4.57;100.00
77410;BME280;66481;51.332;22.804;2024-01-25T00:19:05;98515.28;;;4.53;100.00
77410;BME280;66481;51.332;22.804;2024-01-25T00:23:07;98520.78;;;4.50;100.00
77410;BME280;66481;51.332;22.804;2024-01-25T00:27:08;98522.00;;;4.44;100.00
77410;BME280;66481;51.332;22.804;2024-01-25T00:31:10;98527.03;;;4.47;100.00
77410;BME280;66481;51.332;22.804;2024-01-25T00:35:12;98523.50;;;4.48;100.00
77410;BME280;66481;51.332;22.804;2024-01-25T00:39:14;98515.00;;;4.45;100.00
77410;BME280;66481;51.332;22.804;2024-01-25T00:43:16;98518.34;;;4.47;100.00
77410;BME280;66481;51.332;22.804;2024-01-25T00:47:17;98518.16;;;4.50;100.00
77410;BME280;66481;51.332;22.804;2024-01-25T00:51:21;98517.38;;;4.48;100.00
77410;BME280;66481;51.332;22.804;2024-01-25T00:55:24;98507.44;;;4.53;100.00
77410;BME280;66481;51.332;22.804;2024-01-25T00:59:25;98512.06;;;4.49;100.00
77410;BME280;66481;51.332;22.804;2024-01-25T01:03:27;98504.72;;;4.42;100.00
77410;BME280;66481;51.332;22.804;2024-01-25T01:07:28;98494.25;;;4.42;100.00
77410;BME280;66481;51.332;22.804;2024-01-25T01:11:30;98488.19;;;4.41;100.00
77410;BME280;66481;51.332;22.804;2024-01-25T01:15:31;98489.63;;;4.45;100.00
77410;BME280;66481;51.332;22.804;2024-01-25T01:19:32;98491.63;;;4.42;100.00
77410;BME280;66481;51.332;22.804;2024-01-25T01:23:33;98492.91;;;4.36;100.00
77410;BME280;66481;51.332;22.804;2024-01-25T01:27:34;98492.13;;;4.34;100.00
77410;BME280;66481;51.332;22.804;2024-01-25T01:31:35;98500.31;;;4.42;100.00
77410;BME280;66481;51.332;22.804;2024-01-25T01:35:37;98482.09;;;4.41;100.00
77410;BME280;66481;51.332;22.804;2024-01-25T01:39:38;98476.31;;;4.36;100.00
77410;BME280;66481;51.332;22.804;2024-01-25T01:43:39;98481.03;;;4.30;100.00
77410;BME280;66481;51.332;22.804;2024-01-25T01:47:40;98490.25;;;4.23;100.00
77410;BME280;66481;51.332;22.804;2024-01-25T01:51:42;98481.97;;;4.17;100.00
77410;BME280;66481;51.332;22.804;2024-01-25T01:55:44;98474.97;;;4.17;100.00
77410;BME280;66481;51.332;22.804;2024-01-25T01:59:45;98475.91;;;4.16;100.00
77410;BME280;66481;51.332;22.804;2024-01-25T02:03:47;98470.25;;;4.09;100.00
77410;BME280;66481;51.332;22.804;2024-01-25T02:07:49;98464.47;;;4.04;100.00
77410;BME280;66481;51.332;22.804;2024-01-25T02:11:59;98430.03;;;3.98;100.00
77410;BME280;66481;51.332;22.804;2024-01-25T02:16:01;98460.06;;;3.92;100.00
77410;BME280;66481;51.332;22.804;2024-01-25T02:20:02;98458.38;;;3.91;100.00
77410;BME280;66481;51.332;22.804;2024-01-25T02:24:06;98465.91;;;3.83;100.00
77410;BME280;66481;51.332;22.804;2024-01-25T02:28:07;98460.38;;;3.87;100.00
77410;BME280;66481;51.332;22.804;2024-01-25T02:32:08;98458.06;;;3.83;100.00
77410;BME280;66481;51.332;22.804;2024-01-25T02:36:09;98457.22;;;3.82;100.00
77410;BME280;66481;51.332;22.804;2024-01-25T02:40:11;98441.41;;;3.84;100.00
77410;BME280;66481;51.332;22.804;2024-01-25T02:44:13;98451.50;;;3.90;100.00
77410;BME280;66481;51.332;22.804;2024-01-25T02:48:14;98451.16;;;3.82;100.00
77410;BME280;66481;51.332;22.804;2024-01-25T02:52:16;98457.44;;;3.92;100.00
77410;BME280;66481;51.332;22.804;2024-01-25T02:56:18;98450.00;;;3.86;100.00
77410;BME280;66481;51.332;22.804;2024-01-25T03:00:19;98446.34;;;3.88;100.00
77410;BME280;66481;51.332;22.804;2024-01-25T03:04:20;98453.91;;;3.93;100.00
77410;BME280;66481;51.332;22.804;2024-01-25T03:08:23;98450.44;;;3.92;100.00
77410;BME280;66481;51.332;22.804;2024-01-25T03:12:24;98448.03;;;3.89;100.00
77410;BME280;66481;51.332;22.804;2024-01-25T03:16:25;98435.34;;;3.96;100.00
77410;BME280;66481;51.332;22.804;2024-01-25T03:20:26;98451.91;;;3.97;100.00
77410;BME280;66481;51.332;22.804;2024-01-25T03:24:27;98450.31;;;3.94;100.00
77410;BME280;66481;51.332;22.804;2024-01-25T03:28:28;98446.06;;;3.93;100.00
77410;BME280;66481;51.332;22.804;2024-01-25T03:32:29;98435.78;;;3.90;100.00
77410;BME280;66481;51.332;22.804;2024-01-25T03:36:31;98431.91;;;3.83;100.00
77410;BME280;66481;51.332;22.804;2024-01-25T03:40:32;98433.13;;;3.77;100.00
77410;BME280;66481;51.332;22.804;2024-01-25T03:44:34;98438.69;;;3.72;100.00
77410;BME280;66481;51.332;22.804;2024-01-25T03:48:36;98447.69;;;3.81;100.00
77410;BME280;66481;51.332;22.804;2024-01-25T03:52:37;98447.06;;;3.78;100.00
77410;BME280;66481;51.332;22.804;2024-01-25T03:56:38;98451.03;;;3.70;100.00
77410;BME280;66481;51.332;22.804;2024-01-25T04:00:39;98455.22;;;3.73;100.00
77410;BME280;66481;51.332;22.804;2024-01-25T04:04:40;98453.66;;;3.70;100.00
77410;BME280;66481;51.332;22.804;2024-01-25T04:08:41;98456.28;;;3.70;100.00
77410;BME280;66481;51.332;22.804;2024-01-25T04:12:42;98453.31;;;3.75;100.00
77410;BME280;66481;51.332;22.804;2024-01-25T04:16:43;98462.97;;;3.87;100.00
77410;BME280;66481;51.332;22.804;2024-01-25T04:20:47;98454.41;;;3.85;100.00
77410;BME280;66481;51.332;22.804;2024-01-25T04:24:48;98468.75;;;3.92;100.00
77410;BME280;66481;51.332;22.804;2024-01-25T04:28:50;98449.78;;;3.89;100.00
77410;BME280;66481;51.332;22.804;2024-01-25T04:32:51;98440.81;;;3.93;100.00
77410;BME280;66481;51.332;22.804;2024-01-25T04:36:52;98439.25;;;4.03;100.00
77410;BME280;66481;51.332;22.804;2024-01-25T04:40:53;98434.13;;;4.02;100.00
77410;BME280;66481;51.332;22.804;2024-01-25T04:44:54;98432.03;;;4.07;100.00
77410;BME280;66481;51.332;22.804;2024-01-25T04:48:55;98426.06;;;4.18;100.00
77410;BME280;66481;51.332;22.804;2024-01-25T04:52:56;98418.72;;;4.10;100.00
77410;BME280;66481;51.332;22.804;2024-01-25T04:56:58;98437.03;;;4.10;99.78
77410;BME280;66481;51.332;22.804;2024-01-25T05:00:59;98437.81;;;4.12;99.24
77410;BME280;66481;51.332;22.804;2024-01-25T05:05:00;98433.69;;;4.08;99.31
77410;BME280;66481;51.332;22.804;2024-01-25T05:09:02;98436.41;;;4.06;99.64
77410;BME280;66481;51.332;22.804;2024-01-25T05:13:04;98433.06;;;4.04;99.55
77410;BME280;66481;51.332;22.804;2024-01-25T05:17:05;98440.91;;;4.04;99.82
77410;BME280;66481;51.332;22.804;2024-01-25T05:21:06;98439.03;;;4.06;99.03
77410;BME280;66481;51.332;22.804;2024-01-25T05:25:07;98434.31;;;3.99;99.00
77410;BME280;66481;51.332;22.804;2024-01-25T05:29:09;98430.44;;;3.91;99.82
77410;BME280;66481;51.332;22.804;2024-01-25T05:33:10;98427.31;;;3.86;99.99
77410;BME280;66481;51.332;22.804;2024-01-25T05:37:11;98430.66;;;3.88;100.00
77410;BME280;66481;51.332;22.804;2024-01-25T05:41:13;98433.59;;;3.97;100.00
77410;BME280;66481;51.332;22.804;2024-01-25T05:45:14;98440.59;;;3.96;99.81
77410;BME280;66481;51.332;22.804;2024-01-25T05:49:15;98427.19;;;4.01;99.52
77410;BME280;66481;51.332;22.804;2024-01-25T05:53:16;98446.06;;;4.06;98.89
77410;BME280;66481;51.332;22.804;2024-01-25T05:57:20;98444.69;;;4.00;99.26
77410;BME280;66481;51.332;22.804;2024-01-25T06:01:21;98429.91;;;3.99;98.88
77410;BME280;66481;51.332;22.804;2024-01-25T06:05:22;98430.97;;;3.97;99.28
77410;BME280;66481;51.332;22.804;2024-01-25T06:09:24;98433.81;;;3.93;99.59
77410;BME280;66481;51.332;22.804;2024-01-25T06:13:28;98424.25;;;3.92;99.21
77410;BME280;66481;51.332;22.804;2024-01-25T06:17:30;98418.72;;;3.84;100.00
77410;BME280;66481;51.332;22.804;2024-01-25T06:21:31;98429.91;;;3.86;100.00
77410;BME280;66481;51.332;22.804;2024-01-25T06:25:35;98435.44;;;3.82;100.00
77410;BME280;66481;51.332;22.804;2024-01-25T06:29:38;98422.56;;;3.79;100.00
77410;BME280;66481;51.332;22.804;2024-01-25T06:33:40;98432.94;;;3.67;100.00
77410;BME280;66481;51.332;22.804;2024-01-25T06:37:41;98435.84;;;3.63;100.00
77410;BME280;66481;51.332;22.804;2024-01-25T06:41:42;98439.16;;;3.52;100.00
77410;BME280;66481;51.332;22.804;2024-01-25T06:45:43;98456.81;;;3.48;100.00
77410;BME280;66481;51.332;22.804;2024-01-25T06:49:44;98467.66;;;3.42;100.00
77410;BME280;66481;51.332;22.804;2024-01-25T06:53:48;98462.75;;;3.37;100.00
77410;BME280;66481;51.332;22.804;2024-01-25T06:57:49;98475.63;;;3.41;100.00
77410;BME280;66481;51.332;22.804;2024-01-25T07:01:51;98488.59;;;3.42;100.00
77410;BME280;66481;51.332;22.804;2024-01-25T07:05:51;98498.84;;;3.45;100.00
77410;BME280;66481;51.332;22.804;2024-01-25T07:09:53;98503.34;;;3.43;100.00
77410;BME280;66481;51.332;22.804;2024-01-25T07:13:54;98500.38;;;3.35;100.00
77410;BME280;66481;51.332;22.804;2024-01-25T07:17:55;98513.06;;;3.41;100.00
77410;BME280;66481;51.332;22.804;2024-01-25T07:21:56;98519.22;;;3.40;100.00
77410;BME280;66481;51.332;22.804;2024-01-25T07:25:58;98520.38;;;3.36;100.00
77410;BME280;66481;51.332;22.804;2024-01-25T07:29:59;98535.97;;;3.37;100.00
77410;BME280;66481;51.332;22.804;2024-01-25T07:34:00;98548.19;;;3.37;100.00
77410;BME280;66481;51.332;22.804;2024-01-25T07:38:02;98555.47;;;3.32;100.00
77410;BME280;66481;51.332;22.804;2024-01-25T07:42:05;98562.94;;;3.38;100.00
77410;BME280;66481;51.332;22.804;2024-01-25T07:46:06;98564.72;;;3.37;100.00
77410;BME280;66481;51.332;22.804;2024-01-25T07:50:08;98564.41;;;3.42;100.00
77410;BME280;66481;51.332;22.804;2024-01-25T07:54:09;98556.75;;;3.39;100.00
77410;BME280;66481;51.332;22.804;2024-01-25T07:58:10;98575.63;;;3.44;100.00
77410;BME280;66481;51.332;22.804;2024-01-25T08:02:12;98576.13;;;3.36;100.00
77410;BME280;66481;51.332;22.804;2024-01-25T08:06:13;98584.50;;;3.42;100.00
77410;BME280;66481;51.332;22.804;2024-01-25T08:10:15;98585.88;;;3.47;100.00
77410;BME280;66481;51.332;22.804;2024-01-25T08:14:17;98593.72;;;3.47;100.00
77410;BME280;66481;51.332;22.804;2024-01-25T08:18:19;98592.72;;;3.50;100.00
77410;BME280;66481;51.332;22.804;2024-01-25T08:22:23;98599.69;;;3.49;100.00
77410;BME280;66481;51.332;22.804;2024-01-25T08:26:25;98603.91;;;3.52;100.00
77410;BME280;66481;51.332;22.804;2024-01-25T08:30:26;98595.44;;;3.48;100.00
77410;BME280;66481;51.332;22.804;2024-01-25T08:34:28;98598.88;;;3.49;100.00
77410;BME280;66481;51.332;22.804;2024-01-25T08:38:29;98605.97;;;3.47;100.00
77410;BME280;66481;51.332;22.804;2024-01-25T08:42:30;98609.25;;;3.50;100.00
77410;BME280;66481;51.332;22.804;2024-01-25T08:46:31;98599.06;;;3.46;100.00
77410;BME280;66481;51.332;22.804;2024-01-25T08:50:32;98602.41;;;3.48;100.00
77410;BME280;66481;51.332;22.804;2024-01-25T08:54:34;98610.81;;;3.53;100.00
77410;BME280;66481;51.332;22.804;2024-01-25T08:58:36;98612.59;;;3.52;100.00
77410;BME280;66481;51.332;22.804;2024-01-25T09:02:38;98622.88;;;3.55;100.00
77410;BME280;66481;51.332;22.804;2024-01-25T09:06:39;98625.22;;;3.60;100.00
77410;BME280;66481;51.332;22.804;2024-01-25T09:10:43;98618.09;;;3.62;100.00
77410;BME280;66481;51.332;22.804;2024-01-25T09:14:45;98623.25;;;3.64;100.00
77410;BME280;66481;51.332;22.804;2024-01-25T09:18:46;98628.16;;;3.68;100.00
77410;BME280;66481;51.332;22.804;2024-01-25T09:22:47;98624.16;;;3.63;100.00
77410;BME280;66481;51.332;22.804;2024-01-25T09:26:48;98633.94;;;3.73;100.00
77410;BME280;66481;51.332;22.804;2024-01-25T09:30:49;98630.94;;;3.80;100.00
77410;BME280;66481;51.332;22.804;2024-01-25T09:34:51;98626.72;;;3.77;100.00
77410;BME280;66481;51.332;22.804;2024-01-25T09:38:52;98641.25;;;3.68;100.00
77410;BME280;66481;51.332;22.804;2024-01-25T09:42:54;98647.25;;;3.70;100.00
77410;BME280;66481;51.332;22.804;2024-01-25T09:46:56;98637.41;;;3.74;100.00
77410;BME280;66481;51.332;22.804;2024-01-25T09:50:59;98644.94;;;3.79;100.00
77410;BME280;66481;51.332;22.804;2024-01-25T09:55:01;98620.63;;;3.64;100.00
77410;BME280;66481;51.332;22.804;2024-01-25T09:59:03;98644.22;;;3.76;100.00
77410;BME280;66481;51.332;22.804;2024-01-25T10:03:06;98628.63;;;3.75;100.00
77410;BME280;66481;51.332;22.804;2024-01-25T10:07:08;98634.94;;;3.85;100.00
77410;BME280;66481;51.332;22.804;2024-01-25T10:11:09;98651.09;;;3.92;100.00
77410;BME280;66481;51.332;22.804;2024-01-25T10:15:12;98638.22;;;3.89;100.00
77410;BME280;66481;51.332;22.804;2024-01-25T10:19:13;98645.97;;;3.90;100.00
77410;BME280;66481;51.332;22.804;2024-01-25T10:23:15;98647.66;;;3.91;100.00
77410;BME280;66481;51.332;22.804;2024-01-25T10:27:17;98647.88;;;4.01;100.00
77410;BME280;66481;51.332;22.804;2024-01-25T10:31:18;98650.09;;;3.94;100.00
77410;BME280;66481;51.332;22.804;2024-01-25T10:35:20;98644.09;;;3.92;100.00
77410;BME280;66481;51.332;22.804;2024-01-25T10:39:22;98654.91;;;4.01;100.00
77410;BME280;66481;51.332;22.804;2024-01-25T10:43:23;98653.88;;;4.03;100.00
77410;BME280;66481;51.332;22.804;2024-01-25T10:47:24;98640.44;;;3.95;100.00
77410;BME280;66481;51.332;22.804;2024-01-25T10:51:27;98643.34;;;3.90;100.00
77410;BME280;66481;51.332;22.804;2024-01-25T10:55:29;98650.19;;;3.93;100.00
77410;BME280;66481;51.332;22.804;2024-01-25T10:59:30;98641.47;;;3.92;100.00
77410;BME280;66481;51.332;22.804;2024-01-25T11:03:34;98644.63;;;3.98;100.00
77410;BME280;66481;51.332;22.804;2024-01-25T11:07:49;98663.34;;;4.19;100.00
77410;BME280;66481;51.332;22.804;2024-01-25T11:11:54;98663.06;;;4.23;100.00
77410;BME280;66481;51.332;22.804;2024-01-25T11:15:55;98644.06;;;4.07;100.00
77410;BME280;66481;51.332;22.804;2024-01-25T11:20:00;98637.69;;;4.11;100.00
77410;BME280;66481;51.332;22.804;2024-01-25T11:24:04;98662.31;;;4.21;100.00
77410;BME280;66481;51.332;22.804;2024-01-25T11:28:05;98657.72;;;4.25;100.00
77410;BME280;66481;51.332;22.804;2024-01-25T11:32:09;98638.94;;;4.18;100.00
77410;BME280;66481;51.332;22.804;2024-01-25T11:36:10;98652.03;;;4.18;100.00
77410;BME280;66481;51.332;22.804;2024-01-25T11:40:12;98662.31;;;4.21;100.00
77410;BME280;66481;51.332;22.804;2024-01-25T11:44:15;98669.66;;;4.29;100.00
77410;BME280;66481;51.332;22.804;2024-01-25T11:48:18;98666.84;;;4.32;100.00
77410;BME280;66481;51.332;22.804;2024-01-25T11:52:19;98663.25;;;4.20;100.00
77410;BME280;66481;51.332;22.804;2024-01-25T11:56:33;98656.19;;;4.08;100.00
77410;BME280;66481;51.332;22.804;2024-01-25T12:00:36;98668.44;;;4.07;100.00
77410;BME280;66481;51.332;22.804;2024-01-25T12:04:37;98676.94;;;4.11;100.00
77410;BME280;66481;51.332;22.804;2024-01-25T12:08:40;98681.03;;;4.15;100.00
77410;BME280;66481;51.332;22.804;2024-01-25T12:12:41;98685.97;;;4.20;100.00
77410;BME280;66481;51.332;22.804;2024-01-25T12:16:42;98692.59;;;4.25;100.00
77410;BME280;66481;51.332;22.804;2024-01-25T12:20:45;98687.91;;;4.30;100.00
77410;BME280;66481;51.332;22.804;2024-01-25T12:24:46;98694.00;;;4.31;100.00
77410;BME280;66481;51.332;22.804;2024-01-25T12:28:48;98691.56;;;4.28;100.00
77410;BME280;66481;51.332;22.804;2024-01-25T12:32:50;98691.47;;;4.29;100.00
77410;BME280;66481;51.332;22.804;2024-01-25T12:36:51;98678.13;;;4.20;100.00
77410;BME280;66481;51.332;22.804;2024-01-25T12:40:53;98685.16;;;4.19;100.00
77410;BME280;66481;51.332;22.804;2024-01-25T12:44:55;98690.47;;;4.18;100.00
77410;BME280;66481;51.332;22.804;2024-01-25T12:48:56;98694.56;;;4.22;100.00
77410;BME280;66481;51.332;22.804;2024-01-25T12:53:00;98701.50;;;4.23;100.00
77410;BME280;66481;51.332;22.804;2024-01-25T12:57:06;98701.22;;;4.27;100.00
77410;BME280;66481;51.332;22.804;2024-01-25T13:01:09;98699.72;;;4.23;100.00
77410;BME280;66481;51.332;22.804;2024-01-25T13:05:10;98685.88;;;4.21;100.00
77410;BME280;66481;51.332;22.804;2024-01-25T13:09:11;98694.66;;;4.20;100.00
77410;BME280;66481;51.332;22.804;2024-01-25T13:13:14;98706.97;;;4.32;100.00
77410;BME280;66481;51.332;22.804;2024-01-25T13:17:17;98710.25;;;4.36;100.00
77410;BME280;66481;51.332;22.804;2024-01-25T13:21:18;98688.13;;;4.27;100.00
77410;BME280;66481;51.332;22.804;2024-01-25T13:25:19;98710.09;;;4.25;100.00
77410;BME280;66481;51.332;22.804;2024-01-25T13:29:21;98710.09;;;4.25;100.00
77410;BME280;66481;51.332;22.804;2024-01-25T13:33:23;98710.28;;;4.22;100.00
77410;BME280;66481;51.332;22.804;2024-01-25T13:37:24;98705.03;;;4.22;100.00
77410;BME280;66481;51.332;22.804;2024-01-25T13:41:26;98720.94;;;4.19;100.00
77410;BME280;66481;51.332;22.804;2024-01-25T13:45:28;98723.00;;;4.13;100.00
77410;BME280;66481;51.332;22.804;2024-01-25T13:49:33;98717.25;;;4.08;100.00
77410;BME280;66481;51.332;22.804;2024-01-25T13:53:34;98732.00;;;4.09;100.00
77410;BME280;66481;51.332;22.804;2024-01-25T13:57:37;98744.72;;;4.01;100.00
77410;BME280;66481;51.332;22.804;2024-01-25T14:01:38;98770.75;;;3.90;100.00
77410;BME280;66481;51.332;22.804;2024-01-25T14:05:40;98799.41;;;3.77;100.00
77410;BME280;66481;51.332;22.804;2024-01-25T14:09:42;98802.28;;;3.58;100.00
77410;BME280;66481;51.332;22.804;2024-01-25T14:13:44;98792.22;;;3.37;100.00
77410;BME280;66481;51.332;22.804;2024-01-25T14:17:46;98794.69;;;3.25;100.00
77410;BME280;66481;51.332;22.804;2024-01-25T14:21:47;98789.06;;;3.16;100.00
77410;BME280;66481;51.332;22.804;2024-01-25T14:25:50;98808.31;;;3.15;100.00
77410;BME280;66481;51.332;22.804;2024-01-25T14:29:51;98808.31;;;3.15;100.00
77410;BME280;66481;51.332;22.804;2024-01-25T14:33:52;98817.59;;;3.05;100.00
77410;BME280;66481;51.332;22.804;2024-01-25T14:37:54;98826.63;;;2.99;100.00
77410;BME280;66481;51.332;22.804;2024-01-25T14:41:56;98831.63;;;2.88;100.00
77410;BME280;66481;51.332;22.804;2024-01-25T14:45:58;98829.09;;;2.87;100.00
77410;BME280;66481;51.332;22.804;2024-01-25T14:50:00;98833.91;;;2.78;100.00
77410;BME280;66481;51.332;22.804;2024-01-25T14:54:01;98837.44;;;2.77;100.00
77410;BME280;66481;51.332;22.804;2024-01-25T14:58:02;98843.88;;;2.72;100.00
77410;BME280;66481;51.332;22.804;2024-01-25T15:02:04;98857.00;;;2.70;100.00
77410;BME280;66481;51.332;22.804;2024-01-25T15:06:05;98867.63;;;2.67;100.00
77410;BME280;66481;51.332;22.804;2024-01-25T15:10:07;98878.06;;;2.67;100.00
77410;BME280;66481;51.332;22.804;2024-01-25T15:14:08;98883.63;;;2.61;100.00
77410;BME280;66481;51.332;22.804;2024-01-25T15:18:11;98871.97;;;2.51;100.00
77410;BME280;66481;51.332;22.804;2024-01-25T15:22:13;98874.94;;;2.44;100.00
77410;BME280;66481;51.332;22.804;2024-01-25T15:26:14;98866.06;;;2.31;99.25
77410;BME280;66481;51.332;22.804;2024-01-25T15:30:16;98866.56;;;2.22;98.62
77410;BME280;66481;51.332;22.804;2024-01-25T15:34:18;98859.63;;;2.05;98.49
77410;BME280;66481;51.332;22.804;2024-01-25T15:38:20;98856.84;;;1.92;98.65
77410;BME280;66481;51.332;22.804;2024-01-25T15:42:21;98874.22;;;1.92;99.24
77410;BME280;66481;51.332;22.804;2024-01-25T15:46:23;98876.91;;;1.90;98.98
77410;BME280;66481;51.332;22.804;2024-01-25T15:50:26;98904.78;;;1.90;99.61
77410;BME280;66481;51.332;22.804;2024-01-25T15:54:27;98901.34;;;1.89;98.49
77410;BME280;66481;51.332;22.804;2024-01-25T15:58:28;98903.41;;;1.82;98.07
77410;BME280;66481;51.332;22.804;2024-01-25T16:02:29;98907.19;;;1.77;97.69
77410;BME280;66481;51.332;22.804;2024-01-25T16:06:31;98905.97;;;1.66;97.26
77410;BME280;66481;51.332;22.804;2024-01-25T16:10:33;98906.19;;;1.62;96.61
77410;BME280;66481;51.332;22.804;2024-01-25T16:14:34;98914.00;;;1.62;96.23
77410;BME280;66481;51.332;22.804;2024-01-25T16:18:36;98967.31;;;1.56;95.33
77410;BME280;66481;51.332;22.804;2024-01-25T16:22:38;98993.59;;;1.52;94.96
77410;BME280;66481;51.332;22.804;2024-01-25T16:26:39;99002.47;;;1.47;94.69
77410;BME280;66481;51.332;22.804;2024-01-25T16:30:40;99007.13;;;1.41;94.98
77410;BME280;66481;51.332;22.804;2024-01-25T16:34:43;99011.28;;;1.45;94.83
77410;BME280;66481;51.332;22.804;2024-01-25T16:38:45;99010.25;;;1.30;94.64
77410;BME280;66481;51.332;22.804;2024-01-25T16:42:47;99018.09;;;1.30;94.96
77410;BME280;66481;51.332;22.804;2024-01-25T16:46:49;99019.69;;;1.33;94.74
77410;BME280;66481;51.332;22.804;2024-01-25T16:50:50;99031.31;;;1.25;94.60
77410;BME280;66481;51.332;22.804;2024-01-25T16:54:51;99028.78;;;1.24;94.92
77410;BME280;66481;51.332;22.804;2024-01-25T16:58:53;99030.63;;;1.22;94.73
77410;BME280;66481;51.332;22.804;2024-01-25T17:02:55;99037.03;;;1.15;94.83
77410;BME280;66481;51.332;22.804;2024-01-25T17:06:56;99034.44;;;1.15;94.87
77410;BME280;66481;51.332;22.804;2024-01-25T17:10:57;99046.59;;;1.14;94.61
77410;BME280;66481;51.332;22.804;2024-01-25T17:14:59;99055.03;;;1.19;94.86
77410;BME280;66481;51.332;22.804;2024-01-25T17:19:00;99066.47;;;1.17;94.41
77410;BME280;66481;51.332;22.804;2024-01-25T17:23:01;99070.69;;;1.19;94.38
77410;BME280;66481;51.332;22.804;2024-01-25T17:27:02;99072.25;;;1.23;94.22
77410;BME280;66481;51.332;22.804;2024-01-25T17:31:04;99078.03;;;1.30;93.76
77410;BME280;66481;51.332;22.804;2024-01-25T17:35:06;99078.09;;;1.28;93.46
77410;BME280;66481;51.332;22.804;2024-01-25T17:39:08;99085.78;;;1.31;93.02
77410;BME280;66481;51.332;22.804;2024-01-25T17:43:10;99075.63;;;1.25;92.41
77410;BME280;66481;51.332;22.804;2024-01-25T17:47:11;99064.28;;;1.07;92.08
77410;BME280;66481;51.332;22.804;2024-01-25T17:51:13;99081.09;;;1.00;92.14
77410;BME280;66481;51.332;22.804;2024-01-25T17:55:15;99098.41;;;1.01;92.88
77410;BME280;66481;51.332;22.804;2024-01-25T17:59:16;99105.75;;;1.12;92.95
77410;BME280;66481;51.332;22.804;2024-01-25T18:03:17;99094.53;;;0.91;93.40
77410;BME280;66481;51.332;22.804;2024-01-25T18:07:20;99108.09;;;0.79;93.71
77410;BME280;66481;51.332;22.804;2024-01-25T18:11:22;99106.09;;;0.65;93.95
77410;BME280;66481;51.332;22.804;2024-01-25T18:15:23;99131.47;;;0.60;94.69
77410;BME280;66481;51.332;22.804;2024-01-25T18:19:25;99136.97;;;0.72;94.78
77410;BME280;66481;51.332;22.804;2024-01-25T18:23:29;99147.16;;;0.79;94.65
77410;BME280;66481;51.332;22.804;2024-01-25T18:27:33;99145.72;;;0.71;94.88
77410;BME280;66481;51.332;22.804;2024-01-25T18:31:37;99167.63;;;0.86;94.71
77410;BME280;66481;51.332;22.804;2024-01-25T18:35:38;99142.47;;;0.87;94.11
77410;BME280;66481;51.332;22.804;2024-01-25T18:39:40;99153.78;;;0.86;93.89
77410;BME280;66481;51.332;22.804;2024-01-25T18:43:41;99138.88;;;0.89;93.65
77410;BME280;66481;51.332;22.804;2024-01-25T18:47:43;99144.19;;;0.86;93.63
77410;BME280;66481;51.332;22.804;2024-01-25T18:51:44;99153.38;;;0.95;93.01
77410;BME280;66481;51.332;22.804;2024-01-25T18:55:46;99158.75;;;0.92;92.39
77410;BME280;66481;51.332;22.804;2024-01-25T18:59:52;99163.72;;;0.97;92.17
77410;BME280;66481;51.332;22.804;2024-01-25T19:03:53;99168.09;;;0.96;91.71
77410;BME280;66481;51.332;22.804;2024-01-25T19:07:55;99163.94;;;0.92;91.70
77410;BME280;66481;51.332;22.804;2024-01-25T19:11:58;99174.50;;;0.89;91.63
77410;BME280;66481;51.332;22.804;2024-01-25T19:15:59;99161.59;;;0.86;91.75
77410;BME280;66481;51.332;22.804;2024-01-25T19:20:03;99184.91;;;0.89;92.19
77410;BME280;66481;51.332;22.804;2024-01-25T19:24:06;99185.50;;;0.96;91.62
77410;BME280;66481;51.332;22.804;2024-01-25T19:28:08;99186.47;;;0.93;91.38
77410;BME280;66481;51.332;22.804;2024-01-25T19:32:10;99181.38;;;0.90;92.10
77410;BME280;66481;51.332;22.804;2024-01-25T19:36:14;99195.44;;;0.86;92.08
77410;BME280;66481;51.332;22.804;2024-01-25T19:40:23;99211.00;;;0.87;91.91
77410;BME280;66481;51.332;22.804;2024-01-25T19:44:28;99211.84;;;0.88;91.96
77410;BME280;66481;51.332;22.804;2024-01-25T19:48:30;99224.03;;;0.87;91.39
77410;BME280;66481;51.332;22.804;2024-01-25T19:52:34;99223.91;;;0.90;91.54
77410;BME280;66481;51.332;22.804;2024-01-25T19:56:37;99238.09;;;0.83;91.67
77410;BME280;66481;51.332;22.804;2024-01-25T20:00:38;99247.53;;;0.86;91.63
77410;BME280;66481;51.332;22.804;2024-01-25T20:04:42;99251.19;;;0.82;91.75
77410;BME280;66481;51.332;22.804;2024-01-25T20:08:43;99257.34;;;0.79;92.29
77410;BME280;66481;51.332;22.804;2024-01-25T20:12:45;99271.88;;;0.85;92.57
77410;BME280;66481;51.332;22.804;2024-01-25T20:16:47;99259.84;;;0.82;92.07
77410;BME280;66481;51.332;22.804;2024-01-25T20:20:48;99263.28;;;0.83;92.20
77410;BME280;66481;51.332;22.804;2024-01-25T20:24:52;99261.84;;;0.75;92.20
77410;BME280;66481;51.332;22.804;2024-01-25T20:28:54;99260.69;;;0.83;92.47
77410;BME280;66481;51.332;22.804;2024-01-25T20:32:55;99262.31;;;0.85;92.31
77410;BME280;66481;51.332;22.804;2024-01-25T20:36:59;99257.34;;;0.79;92.29
77410;BME280;66481;51.332;22.804;2024-01-25T20:41:01;99245.56;;;0.70;92.74
77410;BME280;66481;51.332;22.804;2024-01-25T20:45:05;99240.13;;;0.54;92.70
77410;BME280;66481;51.332;22.804;2024-01-25T20:49:08;99247.50;;;0.43;93.49
77410;BME280;66481;51.332;22.804;2024-01-25T20:53:09;99257.56;;;0.52;93.60
77410;BME280;66481;51.332;22.804;2024-01-25T20:57:13;99267.78;;;0.57;93.86
77410;BME280;66481;51.332;22.804;2024-01-25T21:01:15;99277.13;;;0.63;93.54
77410;BME280;66481;51.332;22.804;2024-01-25T21:05:17;99290.81;;;0.68;93.21
77410;BME280;66481;51.332;22.804;2024-01-25T21:09:20;99284.63;;;0.70;93.36